createdAt,value
2023-04-26T00:01:05.392Z,4.90
2023-04-26T00:03:33.177Z,4.40
2023-04-26T00:06:04.450Z,4.50
2023-04-26T00:08:32.325Z,4.50
2023-04-26T00:10:59.742Z,4.90
2023-04-26T00:13:27.247Z,4.80
2023-04-26T00:15:54.682Z,6.10
2023-04-26T00:18:22.108Z,6.70
2023-04-26T00:20:49.422Z,5.90
2023-04-26T00:23:17.663Z,4.60
2023-04-26T00:25:45.307Z,6.20
2023-04-26T00:28:12.618Z,4.90
2023-04-26T00:30:42.505Z,5.40
2023-04-26T00:33:09.954Z,5.70
2023-04-26T00:35:38.367Z,5.40
2023-04-26T00:38:05.848Z,5.00
2023-04-26T00:40:35.702Z,6.30
2023-04-26T00:43:03.316Z,6.20
2023-04-26T00:45:30.961Z,6.00
2023-04-26T00:47:59.478Z,5.90
2023-04-26T00:50:27.055Z,7.20
2023-04-26T00:52:54.485Z,5.90
2023-04-26T00:55:22.581Z,5.90
2023-04-26T00:57:50.423Z,5.60
2023-04-26T01:00:17.916Z,6.20
2023-04-26T01:02:45.762Z,6.70
2023-04-26T01:05:18.986Z,6.20
2023-04-26T01:07:46.481Z,5.60
2023-04-26T01:10:13.940Z,7.20
2023-04-26T01:12:41.778Z,7.30
2023-04-26T01:15:10.438Z,6.60
2023-04-26T01:17:38.462Z,6.10
2023-04-26T01:20:09.043Z,5.70
2023-04-26T01:22:36.959Z,7.00
2023-04-26T01:25:04.810Z,5.60
2023-04-26T01:27:33.617Z,5.30
2023-04-26T01:30:01.231Z,5.50
2023-04-26T01:32:28.729Z,6.00
2023-04-26T01:34:57.557Z,6.20
2023-04-26T01:37:25.369Z,6.10
2023-04-26T01:39:52.964Z,5.40
2023-04-26T01:42:20.345Z,4.90
2023-04-26T01:44:47.837Z,5.40
2023-04-26T01:47:15.096Z,5.30
2023-04-26T01:49:42.474Z,6.90
2023-04-26T01:52:09.798Z,5.80
2023-04-26T01:54:37.346Z,4.80
2023-04-26T01:57:04.819Z,5.10
2023-04-26T01:59:32.244Z,5.70
2023-04-26T02:02:00.025Z,6.20
2023-04-26T02:04:27.974Z,6.00
2023-04-26T02:06:55.561Z,5.90
2023-04-26T02:09:24.890Z,5.70
2023-04-26T02:11:52.481Z,6.70
2023-04-26T02:14:20.668Z,6.50
2023-04-26T02:16:49.426Z,6.80
2023-04-26T02:19:16.808Z,6.40
2023-04-26T02:21:53.070Z,6.50
2023-04-26T02:24:20.311Z,6.80
2023-04-26T02:26:47.984Z,5.80
2023-04-26T02:29:15.395Z,6.40
2023-04-26T02:31:42.829Z,7.20
2023-04-26T02:34:10.375Z,6.40
2023-04-26T02:36:38.881Z,6.80
2023-04-26T02:39:06.435Z,6.10
2023-04-26T02:41:34.023Z,6.80
2023-04-26T02:44:01.636Z,8.30
2023-04-26T02:46:29.133Z,8.40
2023-04-26T02:48:56.668Z,6.90
2023-04-26T02:51:24.374Z,6.30
2023-04-26T02:53:51.783Z,6.60
2023-04-26T02:56:19.791Z,5.70
2023-04-26T02:58:47.428Z,5.70
2023-04-26T03:01:15.587Z,7.70
2023-04-26T03:03:43.096Z,6.60
2023-04-26T03:06:10.717Z,6.50
2023-04-26T03:08:38.564Z,6.50
2023-04-26T03:11:06.114Z,6.30
2023-04-26T03:13:33.844Z,8.10
2023-04-26T03:16:01.353Z,7.60
2023-04-26T03:18:28.780Z,7.60
2023-04-26T03:20:56.555Z,6.90
2023-04-26T03:23:25.660Z,7.00
2023-04-26T03:25:53.870Z,6.60
2023-04-26T03:28:22.041Z,6.50
2023-04-26T03:30:52.438Z,6.00
2023-04-26T03:33:20.301Z,7.40
2023-04-26T03:35:47.886Z,6.50
2023-04-26T03:38:15.217Z,6.60
2023-04-26T03:40:42.691Z,7.10
2023-04-26T03:43:13.235Z,5.60
2023-04-26T03:45:40.632Z,6.70
2023-04-26T03:48:08.353Z,7.40
2023-04-26T03:50:36.659Z,7.40
2023-04-26T03:53:04.217Z,7.40
2023-04-26T03:55:31.564Z,6.60
2023-04-26T03:57:59.187Z,6.60
2023-04-26T04:00:27.631Z,6.80
2023-04-26T04:02:55.275Z,7.20
2023-04-26T04:05:24.620Z,5.60
2023-04-26T04:07:52.584Z,8.40
2023-04-26T04:10:23.209Z,7.70
2023-04-26T04:12:51.437Z,6.90
2023-04-26T04:15:19.612Z,8.00
2023-04-26T04:17:48.021Z,6.50
2023-04-26T04:20:15.891Z,7.10
2023-04-26T04:22:43.433Z,8.00
2023-04-26T04:25:11.996Z,8.70
2023-04-26T04:27:42.702Z,7.20
2023-04-26T04:30:12.775Z,6.00
2023-04-26T04:32:42.579Z,6.40
2023-04-26T04:35:10.201Z,6.90
2023-04-26T04:37:38.475Z,7.50
2023-04-26T04:40:11.348Z,6.90
2023-04-26T04:42:39.944Z,7.30
2023-04-26T04:45:08.808Z,6.00
2023-04-26T04:47:39.977Z,6.00
2023-04-26T04:50:08.237Z,6.10
2023-04-26T04:52:35.686Z,6.80
2023-04-26T04:55:04.405Z,5.60
2023-04-26T04:57:33.645Z,6.50
2023-04-26T05:00:08.842Z,5.20
2023-04-26T05:02:37.771Z,6.50
2023-04-26T05:05:06.420Z,5.50
2023-04-26T05:07:34.382Z,6.40
2023-04-26T05:10:02.967Z,5.90
2023-04-26T05:12:31.789Z,4.90
2023-04-26T05:14:59.552Z,5.50
2023-04-26T05:17:31.261Z,6.80
2023-04-26T05:19:59.252Z,6.00
2023-04-26T05:22:27.192Z,6.00
2023-04-26T05:24:54.571Z,6.80
2023-04-26T05:27:24.417Z,5.20
2023-04-26T05:30:09.871Z,4.70
2023-04-26T05:32:46.068Z,5.20
2023-04-26T05:35:33.854Z,5.30
2023-04-26T05:38:01.223Z,4.80
2023-04-26T05:40:28.732Z,4.40
2023-04-26T05:42:56.536Z,4.50
2023-04-26T05:45:24.524Z,5.20
2023-04-26T05:47:52.164Z,4.30
2023-04-26T05:50:19.520Z,5.60
2023-04-26T05:52:47.040Z,6.20
2023-04-26T05:55:14.342Z,3.70
2023-04-26T05:57:41.982Z,4.60
2023-04-26T06:00:10.212Z,4.80
2023-04-26T06:02:44.102Z,5.50
2023-04-26T06:05:15.164Z,4.50
2023-04-26T06:07:42.813Z,4.40
2023-04-26T06:10:10.903Z,4.40
2023-04-26T06:12:39.430Z,4.20
2023-04-26T06:15:07.441Z,4.20
2023-04-26T06:17:36.695Z,4.50
2023-04-26T06:20:06.003Z,3.70
2023-04-26T06:22:33.407Z,9.60
2023-04-26T06:25:01.023Z,5.00
2023-04-26T06:27:28.554Z,4.20
2023-04-26T06:29:55.976Z,4.20
2023-04-26T06:32:23.565Z,4.20
2023-04-26T06:34:51.058Z,3.40
2023-04-26T06:37:18.446Z,3.30
2023-04-26T06:39:45.946Z,3.90
2023-04-26T06:42:13.912Z,3.80
2023-04-26T06:44:55.840Z,4.00
2023-04-26T06:47:23.346Z,3.40
2023-04-26T06:49:51.930Z,3.90
2023-04-26T06:52:21.063Z,4.40
2023-04-26T06:54:56.512Z,3.50
2023-04-26T06:57:25.329Z,4.00
2023-04-26T06:59:52.650Z,4.40
2023-04-26T07:02:20.173Z,4.50
2023-04-26T07:04:47.903Z,3.90
2023-04-26T07:07:16.873Z,4.00
2023-04-26T07:09:44.613Z,4.20
2023-04-26T07:12:12.845Z,3.60
2023-04-26T07:14:41.512Z,3.50
2023-04-26T07:17:11.726Z,3.90
2023-04-26T07:19:39.263Z,3.90
2023-04-26T07:22:06.684Z,4.00
2023-04-26T07:24:34.061Z,3.70
2023-04-26T07:27:01.492Z,4.00
2023-04-26T07:29:29.080Z,4.10
2023-04-26T07:31:57.446Z,3.10
2023-04-26T07:34:24.850Z,3.90
2023-04-26T07:36:52.229Z,2.50
2023-04-26T07:39:19.856Z,3.40
2023-04-26T07:41:47.422Z,3.00
2023-04-26T07:44:14.818Z,2.90
2023-04-26T07:46:42.279Z,3.30
2023-04-26T07:49:09.899Z,3.10
2023-04-26T07:51:37.466Z,3.40
2023-04-26T07:54:05.133Z,4.00
2023-04-26T07:56:32.498Z,4.00
2023-04-26T07:58:59.803Z,2.60
2023-04-26T08:01:28.269Z,3.50
2023-04-26T08:03:56.398Z,3.70
2023-04-26T08:06:24.157Z,3.40
2023-04-26T08:08:53.285Z,2.90
2023-04-26T08:11:20.873Z,2.50
2023-04-26T08:13:48.550Z,3.00
2023-04-26T08:16:16.132Z,3.40
2023-04-26T08:18:46.105Z,3.00
2023-04-26T08:21:14.504Z,3.50
2023-04-26T08:23:41.981Z,3.20
2023-04-26T08:26:09.349Z,4.30
2023-04-26T08:28:36.860Z,3.00
2023-04-26T08:31:05.569Z,3.90
2023-04-26T08:33:32.984Z,3.80
2023-04-26T08:36:02.007Z,3.20
2023-04-26T08:38:29.920Z,4.00
2023-04-26T08:40:57.263Z,3.50
2023-04-26T08:43:24.656Z,4.90
2023-04-26T08:45:52.737Z,4.00
2023-04-26T08:48:20.014Z,4.30
2023-04-26T08:50:47.811Z,3.60
2023-04-26T08:53:17.195Z,3.50
2023-04-26T08:55:49.589Z,3.40
2023-04-26T08:58:19.981Z,2.70
2023-04-26T09:00:47.333Z,2.40
2023-04-26T09:03:15.025Z,2.80
2023-04-26T09:05:46.035Z,2.10
2023-04-26T09:08:16.372Z,2.20
2023-04-26T09:10:43.999Z,2.30
2023-04-26T09:13:11.817Z,2.10
2023-04-26T09:15:40.010Z,1.10
2023-04-26T09:18:18.437Z,2.50
2023-04-26T09:20:46.072Z,2.10
2023-04-26T09:23:13.662Z,3.10
2023-04-26T09:25:41.705Z,2.90
2023-04-26T09:28:21.640Z,2.30
2023-04-26T09:30:49.234Z,1.40
2023-04-26T09:33:17.015Z,1.20
2023-04-26T09:35:44.435Z,1.40
2023-04-26T09:38:14.138Z,1.00
2023-04-26T09:40:43.530Z,1.80
2023-04-26T09:43:12.312Z,1.50
2023-04-26T09:45:51.402Z,1.10
2023-04-26T09:48:30.852Z,0.90
2023-04-26T09:51:19.234Z,1.20
2023-04-26T09:53:47.978Z,2.30
2023-04-26T09:56:19.190Z,1.50
2023-04-26T09:58:47.139Z,1.00
2023-04-26T10:01:16.593Z,0.90
2023-04-26T10:03:44.186Z,1.20
2023-04-26T10:06:15.064Z,1.30
2023-04-26T10:08:42.724Z,1.00
2023-04-26T10:11:13.176Z,4.70
2023-04-26T10:13:41.923Z,1.40
2023-04-26T10:16:10.428Z,1.60
2023-04-26T10:18:38.061Z,1.30
2023-04-26T10:21:21.752Z,6.60
2023-04-26T10:23:49.487Z,1.40
2023-04-26T10:26:57.779Z,1.50
2023-04-26T10:29:26.286Z,0.80
2023-04-26T10:32:06.876Z,1.10
2023-04-26T10:34:34.833Z,1.70
2023-04-26T10:37:18.681Z,1.00
2023-04-26T10:39:46.745Z,1.70
2023-04-26T10:42:28.275Z,2.60
2023-04-26T10:44:59.279Z,3.70
2023-04-26T10:47:34.951Z,1.40
2023-04-26T10:50:05.679Z,1.00
2023-04-26T10:52:34.797Z,2.20
2023-04-26T10:55:03.070Z,2.10
2023-04-26T10:57:49.767Z,1.50
2023-04-26T11:00:18.082Z,1.10
2023-04-26T11:02:47.994Z,0.80
2023-04-26T11:05:48.023Z,1.00
2023-04-26T11:08:16.920Z,1.10
2023-04-26T11:10:46.423Z,1.00
2023-04-26T11:13:13.727Z,1.20
2023-04-26T11:15:41.081Z,1.30
2023-04-26T11:18:08.760Z,0.90
2023-04-26T11:20:36.308Z,1.40
2023-04-26T11:23:03.920Z,1.00
2023-04-26T11:25:31.587Z,1.20
2023-04-26T11:28:02.672Z,0.80
2023-04-26T11:30:32.010Z,1.20
2023-04-26T11:33:00.648Z,0.90
2023-04-26T11:35:31.175Z,1.70
2023-04-26T11:38:00.602Z,2.00
2023-04-26T11:40:32.518Z,1.10
2023-04-26T11:43:01.780Z,1.10
2023-04-26T11:45:29.415Z,1.50
2023-04-26T11:47:57.371Z,0.90
2023-04-26T11:50:27.151Z,1.10
2023-04-26T11:52:58.899Z,1.30
2023-04-26T11:55:31.081Z,1.80
2023-04-26T12:00:26.548Z,3.70
2023-04-26T12:02:54.623Z,1.20
2023-04-26T12:05:23.954Z,1.00
2023-04-26T12:07:56.965Z,1.40
2023-04-26T12:10:36.084Z,1.10
2023-04-26T12:13:03.473Z,1.00
2023-04-26T12:15:32.445Z,0.80
2023-04-26T12:18:02.024Z,1.70
2023-04-26T12:20:31.514Z,0.90
2023-04-26T12:23:00.469Z,1.20
2023-04-26T12:25:28.268Z,1.40
2023-04-26T12:27:56.432Z,1.10
2023-04-26T12:30:24.230Z,1.00
2023-04-26T12:33:15.654Z,1.00
2023-04-26T12:35:44.272Z,1.00
2023-04-26T12:38:12.755Z,1.40
2023-04-26T12:40:40.401Z,1.30
2023-04-26T12:43:07.894Z,1.20
2023-04-26T12:45:35.480Z,1.00
2023-04-26T12:48:03.010Z,0.70
2023-04-26T12:50:30.570Z,1.20
2023-04-26T12:52:57.912Z,1.00
2023-04-26T12:55:25.396Z,1.10
2023-04-26T12:57:52.789Z,1.10
2023-04-26T13:00:21.924Z,1.50
2023-04-26T13:02:49.362Z,1.20
2023-04-26T13:05:16.775Z,0.90
2023-04-26T13:07:45.069Z,0.90
2023-04-26T13:10:13.121Z,1.70
2023-04-26T13:12:41.723Z,1.20
2023-04-26T13:15:09.800Z,1.60
2023-04-26T13:17:37.770Z,1.10
2023-04-26T13:20:06.809Z,1.40
2023-04-26T13:22:34.394Z,1.00
2023-04-26T13:25:01.945Z,1.20
2023-04-26T13:27:31.680Z,1.20
2023-04-26T13:29:59.285Z,1.00
2023-04-26T13:32:26.749Z,3.80
2023-04-26T13:34:55.713Z,4.00
2023-04-26T13:37:24.018Z,3.10
2023-04-26T13:39:51.455Z,0.90
2023-04-26T13:42:18.958Z,1.40
2023-04-26T13:44:46.446Z,1.30
2023-04-26T13:47:13.821Z,1.60
2023-04-26T13:49:45.043Z,1.20
2023-04-26T13:52:12.473Z,1.60
2023-04-26T13:54:42.704Z,1.10
2023-04-26T13:57:10.206Z,1.40
2023-04-26T13:59:37.490Z,1.10
2023-04-26T14:02:04.816Z,0.70
2023-04-26T14:04:32.443Z,1.30
2023-04-26T14:07:00.013Z,1.20
2023-04-26T14:09:27.460Z,0.90
2023-04-26T14:12:07.159Z,5.00
2023-04-26T14:14:36.814Z,1.10
2023-04-26T14:17:04.286Z,0.70
2023-04-26T14:19:31.837Z,1.40
2023-04-26T14:21:59.212Z,5.70
2023-04-26T14:24:26.545Z,2.60
2023-04-26T14:26:53.964Z,1.00
2023-04-26T14:29:21.373Z,0.70
2023-04-26T14:31:49.097Z,2.40
2023-04-26T14:34:16.947Z,4.10
2023-04-26T14:36:44.374Z,2.10
2023-04-26T14:39:11.916Z,1.20
2023-04-26T14:41:39.419Z,1.00
2023-04-26T14:44:06.990Z,1.50
2023-04-26T14:46:34.585Z,1.70
2023-04-26T14:49:02.184Z,3.60
2023-04-26T14:51:30.081Z,1.30
2023-04-26T14:53:57.588Z,1.20
2023-04-26T14:56:24.987Z,2.10
2023-04-26T14:58:52.408Z,19.10
2023-04-26T15:01:19.756Z,3.00
2023-04-26T15:03:47.469Z,1.40
2023-04-26T15:06:14.991Z,1.20
2023-04-26T15:08:42.454Z,2.80
2023-04-26T15:11:09.800Z,1.20
2023-04-26T15:13:37.685Z,1.40
2023-04-26T15:16:07.785Z,1.90
2023-04-26T15:18:35.753Z,0.70
2023-04-26T15:21:03.088Z,1.10
2023-04-26T15:23:30.689Z,1.20
2023-04-26T15:26:02.558Z,1.30
2023-04-26T15:28:30.032Z,0.90
2023-04-26T15:31:08.028Z,4.20
2023-04-26T15:33:35.416Z,19.80
2023-04-26T15:36:02.928Z,2.90
2023-04-26T15:38:30.204Z,1.40
2023-04-26T15:40:57.625Z,1.50
2023-04-26T15:43:25.128Z,1.10
2023-04-26T15:45:52.429Z,1.10
2023-04-26T15:48:19.899Z,1.90
2023-04-26T15:50:47.603Z,2.00
2023-04-26T15:53:14.916Z,1.30
2023-04-26T15:55:42.413Z,1.30
2023-04-26T15:58:09.837Z,1.10
2023-04-26T16:00:37.303Z,1.40
2023-04-26T16:03:06.288Z,1.00
2023-04-26T16:05:45.873Z,1.80
2023-04-26T16:08:14.829Z,1.60
2023-04-26T16:10:45.097Z,1.30
2023-04-26T16:13:12.568Z,1.10
2023-04-26T16:15:40.353Z,1.70
2023-04-26T16:18:08.354Z,2.30
2023-04-26T16:20:36.287Z,1.20
2023-04-26T16:23:05.023Z,2.40
2023-04-26T16:25:32.730Z,1.50
2023-04-26T16:28:00.257Z,1.50
2023-04-26T16:30:27.821Z,1.30
2023-04-26T16:32:55.319Z,1.90
2023-04-26T16:35:23.333Z,1.90
2023-04-26T16:37:51.662Z,1.80
2023-04-26T16:40:19.055Z,1.90
2023-04-26T16:42:46.541Z,1.90
2023-04-26T16:45:16.309Z,1.70
2023-04-26T16:47:44.411Z,2.10
2023-04-26T16:50:12.192Z,2.50
2023-04-26T16:52:39.680Z,2.40
2023-04-26T16:55:08.876Z,1.90
2023-04-26T17:00:11.772Z,5.20
2023-04-26T17:02:40.969Z,4.20
2023-04-26T17:05:10.295Z,7.70
2023-04-26T17:07:38.172Z,9.50
2023-04-26T17:10:06.201Z,10.40
2023-04-26T17:12:33.868Z,11.60
2023-04-26T17:15:04.282Z,12.60
2023-04-26T17:17:32.119Z,11.40
2023-04-26T17:19:59.516Z,10.20
2023-04-26T17:22:26.883Z,12.20
2023-04-26T17:24:54.519Z,13.80
2023-04-26T17:27:26.940Z,16.00
2023-04-26T17:29:54.833Z,21.60
2023-04-26T17:32:22.199Z,20.20
2023-04-26T17:34:49.774Z,28.80
2023-04-26T17:37:17.346Z,24.60
2023-04-26T17:39:44.920Z,19.10
2023-04-26T17:42:12.466Z,18.60
2023-04-26T17:44:39.977Z,36.90
2023-04-26T17:47:07.334Z,44.20
2023-04-26T17:49:34.840Z,31.10
2023-04-26T17:52:02.764Z,21.10
2023-04-26T17:54:30.137Z,26.30
2023-04-26T17:56:58.611Z,15.90
2023-04-26T17:59:26.377Z,13.10
2023-04-26T18:01:53.793Z,16.40
2023-04-26T18:04:21.674Z,17.40
2023-04-26T18:06:49.526Z,18.50
2023-04-26T18:09:17.093Z,18.40
2023-04-26T18:11:47.996Z,20.80
2023-04-26T18:14:15.382Z,24.50
2023-04-26T18:16:43.765Z,21.70
2023-04-26T18:19:11.298Z,21.30
2023-04-26T18:21:39.514Z,20.20
2023-04-26T18:24:07.596Z,18.90
2023-04-26T18:26:35.607Z,18.00
2023-04-26T18:29:03.080Z,17.70
2023-04-26T18:31:32.492Z,16.60
2023-04-26T18:34:11.862Z,16.50
2023-04-26T18:36:42.002Z,19.90
2023-04-26T18:39:09.411Z,26.70
2023-04-26T18:41:36.890Z,33.20
2023-04-26T18:44:10.745Z,46.10
2023-04-26T18:46:38.354Z,46.30
2023-04-26T18:49:05.891Z,39.80
2023-04-26T18:51:34.115Z,37.90
2023-04-26T18:54:01.898Z,35.60
2023-04-26T18:56:29.742Z,35.20
2023-04-26T18:58:57.364Z,32.10
2023-04-26T19:01:24.889Z,27.80
2023-04-26T19:03:52.763Z,27.10
2023-04-26T19:06:20.637Z,20.60
2023-04-26T19:08:48.442Z,17.60
2023-04-26T19:11:15.949Z,13.60
2023-04-26T19:13:43.556Z,11.70
2023-04-26T19:16:14.142Z,11.00
2023-04-26T19:18:42.067Z,11.50
2023-04-26T19:21:09.508Z,12.20
2023-04-26T19:23:36.887Z,18.70
2023-04-26T19:26:09.070Z,18.00
2023-04-26T19:28:38.050Z,17.40
2023-04-26T19:31:08.135Z,15.10
2023-04-26T19:33:37.055Z,12.60
2023-04-26T19:36:04.735Z,11.10
2023-04-26T19:38:32.252Z,10.30
2023-04-26T19:41:01.352Z,9.30
2023-04-26T19:43:28.962Z,9.30
2023-04-26T19:45:56.316Z,8.60
2023-04-26T19:48:23.744Z,6.70
2023-04-26T19:50:51.341Z,6.50
2023-04-26T19:53:18.930Z,6.00
2023-04-26T19:55:47.711Z,8.00
2023-04-26T19:58:15.334Z,6.80
2023-04-26T20:00:43.915Z,7.40
2023-04-26T20:03:11.463Z,6.40
2023-04-26T20:05:39.083Z,7.30
2023-04-26T20:08:06.439Z,8.70
2023-04-26T20:10:34.370Z,8.80
2023-04-26T20:13:03.080Z,8.10
2023-04-26T20:15:32.143Z,6.80
2023-04-26T20:18:02.471Z,7.00
2023-04-26T20:20:30.327Z,7.00
2023-04-26T20:22:57.812Z,7.40
2023-04-26T20:25:25.383Z,6.40
2023-04-26T20:27:53.105Z,7.00
2023-04-26T20:30:20.615Z,6.30
2023-04-26T20:32:48.307Z,6.60
2023-04-26T20:35:16.158Z,5.90
2023-04-26T20:37:43.494Z,4.70
2023-04-26T20:40:11.457Z,5.50
2023-04-26T20:42:39.606Z,5.40
2023-04-26T20:45:08.248Z,5.10
2023-04-26T20:47:37.197Z,4.80
2023-04-26T20:50:05.543Z,4.60
2023-04-26T20:52:32.878Z,4.60
2023-04-26T20:55:00.236Z,4.20
2023-04-26T20:57:27.724Z,4.20
2023-04-26T20:59:55.198Z,4.30
2023-04-26T21:02:26.075Z,5.00
2023-04-26T21:04:53.861Z,6.60
2023-04-26T21:07:21.271Z,6.00
2023-04-26T21:09:49.354Z,6.50
2023-04-26T21:12:16.785Z,7.60
2023-04-26T21:14:46.110Z,6.90
2023-04-26T21:17:14.588Z,7.80
2023-04-26T21:19:42.249Z,6.70
2023-04-26T21:22:09.853Z,7.00
2023-04-26T21:24:37.555Z,6.00
2023-04-26T21:27:04.913Z,8.00
2023-04-26T21:29:32.520Z,7.20
2023-04-26T21:32:00.165Z,6.50
2023-04-26T21:34:27.533Z,6.80
2023-04-26T21:36:54.923Z,7.00
2023-04-26T21:39:22.380Z,7.10
2023-04-26T21:41:49.737Z,6.80
2023-04-26T21:44:17.173Z,6.70
2023-04-26T21:46:44.713Z,7.30
2023-04-26T21:49:12.346Z,6.50
2023-04-26T21:51:39.780Z,9.00
2023-04-26T21:54:07.384Z,7.90
2023-04-26T21:56:34.815Z,7.70
2023-04-26T21:59:02.852Z,7.20
2023-04-26T22:01:30.211Z,8.60
2023-04-26T22:03:57.956Z,8.40
2023-04-26T22:06:25.471Z,9.80
2023-04-26T22:08:52.958Z,12.00
2023-04-26T22:11:20.337Z,11.80
2023-04-26T22:13:47.832Z,16.90
2023-04-26T22:16:15.222Z,16.30
2023-04-26T22:18:42.588Z,18.70
2023-04-26T22:21:10.098Z,20.70
2023-04-26T22:23:37.425Z,19.80
2023-04-26T22:26:04.994Z,18.90
2023-04-26T22:28:32.465Z,16.20
2023-04-26T22:30:59.858Z,14.40
2023-04-26T22:33:27.433Z,15.90
2023-04-26T22:35:58.097Z,12.80
2023-04-26T22:38:25.749Z,12.70
2023-04-26T22:40:53.139Z,12.60
2023-04-26T22:43:20.444Z,11.80
2023-04-26T22:45:47.773Z,13.90
2023-04-26T22:48:15.116Z,14.00
2023-04-26T22:50:42.879Z,16.40
2023-04-26T22:53:10.404Z,18.50
2023-04-26T22:55:37.840Z,20.80
2023-04-26T22:58:05.034Z,20.30
2023-04-26T23:00:32.454Z,18.10
2023-04-26T23:02:59.940Z,13.90
2023-04-26T23:05:27.947Z,12.70
2023-04-26T23:07:55.038Z,12.10
2023-04-26T23:10:21.951Z,12.20
2023-04-26T23:12:50.062Z,12.10
2023-04-26T23:15:16.905Z,11.80
2023-04-26T23:17:44.722Z,11.00
2023-04-26T23:20:12.357Z,9.90
2023-04-26T23:22:43.025Z,9.00
2023-04-26T23:25:09.953Z,10.90
2023-04-26T23:27:37.346Z,12.10
2023-04-26T23:30:05.426Z,13.60
2023-04-26T23:32:33.055Z,14.10
2023-04-26T23:35:00.572Z,14.20
2023-04-26T23:37:27.662Z,16.90
2023-04-26T23:39:54.972Z,15.40
2023-04-26T23:42:22.462Z,15.00
2023-04-26T23:44:49.574Z,14.60
2023-04-26T23:47:16.775Z,14.00
2023-04-26T23:49:43.854Z,14.00
2023-04-26T23:52:11.760Z,14.10
2023-04-26T23:54:38.896Z,14.80
2023-04-26T23:57:06.563Z,14.60
2023-04-26T23:59:33.711Z,13.60
